sensor_id;sensor_type;location;lat;lon;timestamp;P1;durP1;ratioP1;P2;durP2;ratioP2
53652;SDS011;39553;52.954;5.932;2022-07-22T00:00:10;6.05;;;3.70;;
53652;SDS011;39553;52.954;5.932;2022-07-22T00:02:36;9.05;;;3.80;;
53652;SDS011;39553;52.954;5.932;2022-07-22T00:05:02;9.70;;;3.85;;
53652;SDS011;39553;52.954;5.932;2022-07-22T00:07:28;10.73;;;3.42;;
53652;SDS011;39553;52.954;5.932;2022-07-22T00:09:54;7.85;;;3.40;;
53652;SDS011;39553;52.954;5.932;2022-07-22T00:12:20;7.45;;;3.40;;
53652;SDS011;39553;52.954;5.932;2022-07-22T00:14:46;7.25;;;3.70;;
53652;SDS011;39553;52.954;5.932;2022-07-22T00:17:12;9.05;;;3.33;;
53652;SDS011;39553;52.954;5.932;2022-07-22T00:19:37;5.70;;;3.38;;
53652;SDS011;39553;52.954;5.932;2022-07-22T00:22:03;8.23;;;3.55;;
53652;SDS011;39553;52.954;5.932;2022-07-22T00:24:29;8.48;;;2.78;;
53652;SDS011;39553;52.954;5.932;2022-07-22T00:26:55;7.88;;;2.33;;
53652;SDS011;39553;52.954;5.932;2022-07-22T00:29:21;9.10;;;2.55;;
53652;SDS011;39553;52.954;5.932;2022-07-22T00:31:48;10.30;;;2.30;;
53652;SDS011;39553;52.954;5.932;2022-07-22T00:34:13;12.18;;;2.38;;
53652;SDS011;39553;52.954;5.932;2022-07-22T00:36:39;13.30;;;2.47;;
53652;SDS011;39553;52.954;5.932;2022-07-22T00:39:05;7.65;;;2.55;;
53652;SDS011;39553;52.954;5.932;2022-07-22T00:41:30;9.98;;;2.67;;
53652;SDS011;39553;52.954;5.932;2022-07-22T00:44:00;11.40;;;2.20;;
53652;SDS011;39553;52.954;5.932;2022-07-22T00:46:29;6.75;;;2.90;;
53652;SDS011;39553;52.954;5.932;2022-07-22T00:48:56;8.40;;;2.42;;
53652;SDS011;39553;52.954;5.932;2022-07-22T00:51:23;10.77;;;3.38;;
53652;SDS011;39553;52.954;5.932;2022-07-22T00:53:50;10.18;;;2.13;;
53652;SDS011;39553;52.954;5.932;2022-07-22T00:56:17;11.82;;;2.67;;
53652;SDS011;39553;52.954;5.932;2022-07-22T00:58:43;10.75;;;2.35;;
53652;SDS011;39553;52.954;5.932;2022-07-22T01:01:10;5.97;;;2.17;;
53652;SDS011;39553;52.954;5.932;2022-07-22T01:03:36;6.80;;;1.88;;
53652;SDS011;39553;52.954;5.932;2022-07-22T01:06:03;4.70;;;2.03;;
53652;SDS011;39553;52.954;5.932;2022-07-22T01:08:31;6.47;;;2.38;;
53652;SDS011;39553;52.954;5.932;2022-07-22T01:13:40;9.70;;;2.80;;
53652;SDS011;39553;52.954;5.932;2022-07-22T01:16:08;9.85;;;2.45;;
53652;SDS011;39553;52.954;5.932;2022-07-22T01:18:35;9.18;;;2.53;;
53652;SDS011;39553;52.954;5.932;2022-07-22T01:21:02;7.85;;;2.20;;
53652;SDS011;39553;52.954;5.932;2022-07-22T01:23:28;7.93;;;2.80;;
53652;SDS011;39553;52.954;5.932;2022-07-22T01:25:54;14.02;;;2.50;;
53652;SDS011;39553;52.954;5.932;2022-07-22T01:28:19;7.20;;;2.53;;
53652;SDS011;39553;52.954;5.932;2022-07-22T01:30:47;5.97;;;2.10;;
53652;SDS011;39553;52.954;5.932;2022-07-22T01:33:14;6.03;;;1.98;;
53652;SDS011;39553;52.954;5.932;2022-07-22T01:35:44;6.78;;;2.10;;
53652;SDS011;39553;52.954;5.932;2022-07-22T01:38:10;6.82;;;2.42;;
53652;SDS011;39553;52.954;5.932;2022-07-22T01:40:37;4.53;;;1.85;;
53652;SDS011;39553;52.954;5.932;2022-07-22T01:43:03;11.85;;;1.95;;
53652;SDS011;39553;52.954;5.932;2022-07-22T01:45:30;8.93;;;2.50;;
53652;SDS011;39553;52.954;5.932;2022-07-22T01:47:56;8.05;;;1.85;;
53652;SDS011;39553;52.954;5.932;2022-07-22T01:50:23;6.53;;;2.05;;
53652;SDS011;39553;52.954;5.932;2022-07-22T01:52:49;7.30;;;1.92;;
53652;SDS011;39553;52.954;5.932;2022-07-22T01:55:15;6.30;;;1.80;;
53652;SDS011;39553;52.954;5.932;2022-07-22T01:57:41;7.63;;;1.95;;
53652;SDS011;39553;52.954;5.932;2022-07-22T02:00:07;6.82;;;2.05;;
53652;SDS011;39553;52.954;5.932;2022-07-22T02:02:34;6.03;;;1.90;;
53652;SDS011;39553;52.954;5.932;2022-07-22T02:05:00;11.52;;;2.05;;
53652;SDS011;39553;52.954;5.932;2022-07-22T02:07:27;3.00;;;1.70;;
53652;SDS011;39553;52.954;5.932;2022-07-22T02:09:54;7.20;;;2.15;;
53652;SDS011;39553;52.954;5.932;2022-07-22T02:12:20;11.13;;;2.10;;
53652;SDS011;39553;52.954;5.932;2022-07-22T02:14:46;5.03;;;1.70;;
53652;SDS011;39553;52.954;5.932;2022-07-22T02:17:12;8.20;;;2.03;;
53652;SDS011;39553;52.954;5.932;2022-07-22T02:19:38;6.30;;;2.90;;
53652;SDS011;39553;52.954;5.932;2022-07-22T02:22:04;15.65;;;4.65;;
53652;SDS011;39553;52.954;5.932;2022-07-22T02:24:30;7.20;;;2.90;;
53652;SDS011;39553;52.954;5.932;2022-07-22T02:26:56;13.68;;;2.67;;
53652;SDS011;39553;52.954;5.932;2022-07-22T02:29:22;7.82;;;2.25;;
53652;SDS011;39553;52.954;5.932;2022-07-22T02:31:47;7.07;;;3.65;;
53652;SDS011;39553;52.954;5.932;2022-07-22T02:34:13;8.00;;;2.33;;
53652;SDS011;39553;52.954;5.932;2022-07-22T02:36:39;5.22;;;2.20;;
53652;SDS011;39553;52.954;5.932;2022-07-22T02:39:05;9.75;;;3.13;;
53652;SDS011;39553;52.954;5.932;2022-07-22T02:41:34;5.53;;;2.60;;
53652;SDS011;39553;52.954;5.932;2022-07-22T02:44:00;6.35;;;2.10;;
53652;SDS011;39553;52.954;5.932;2022-07-22T02:46:26;10.73;;;3.28;;
53652;SDS011;39553;52.954;5.932;2022-07-22T02:48:55;14.38;;;7.13;;
53652;SDS011;39553;52.954;5.932;2022-07-22T02:51:21;9.93;;;3.92;;
53652;SDS011;39553;52.954;5.932;2022-07-22T02:53:47;10.55;;;5.25;;
53652;SDS011;39553;52.954;5.932;2022-07-22T02:56:12;7.10;;;3.70;;
53652;SDS011;39553;52.954;5.932;2022-07-22T02:58:39;6.68;;;2.30;;
53652;SDS011;39553;52.954;5.932;2022-07-22T03:01:08;6.32;;;2.40;;
53652;SDS011;39553;52.954;5.932;2022-07-22T03:03:34;10.15;;;2.10;;
53652;SDS011;39553;52.954;5.932;2022-07-22T03:06:00;7.60;;;2.10;;
53652;SDS011;39553;52.954;5.932;2022-07-22T03:08:25;4.95;;;1.83;;
53652;SDS011;39553;52.954;5.932;2022-07-22T03:10:51;5.15;;;1.90;;
53652;SDS011;39553;52.954;5.932;2022-07-22T03:13:17;3.92;;;2.20;;
53652;SDS011;39553;52.954;5.932;2022-07-22T03:15:43;4.47;;;2.13;;
53652;SDS011;39553;52.954;5.932;2022-07-22T03:18:09;7.35;;;2.13;;
53652;SDS011;39553;52.954;5.932;2022-07-22T03:20:34;7.63;;;2.22;;
53652;SDS011;39553;52.954;5.932;2022-07-22T03:23:01;7.50;;;1.95;;
53652;SDS011;39553;52.954;5.932;2022-07-22T03:25:27;5.60;;;2.45;;
53652;SDS011;39553;52.954;5.932;2022-07-22T03:27:53;5.15;;;2.10;;
53652;SDS011;39553;52.954;5.932;2022-07-22T03:30:19;4.03;;;1.65;;
53652;SDS011;39553;52.954;5.932;2022-07-22T03:32:45;6.15;;;1.92;;
53652;SDS011;39553;52.954;5.932;2022-07-22T03:35:14;7.78;;;2.70;;
53652;SDS011;39553;52.954;5.932;2022-07-22T03:37:40;7.15;;;2.78;;
53652;SDS011;39553;52.954;5.932;2022-07-22T03:40:07;8.20;;;2.40;;
53652;SDS011;39553;52.954;5.932;2022-07-22T03:42:35;9.85;;;3.72;;
53652;SDS011;39553;52.954;5.932;2022-07-22T03:45:00;6.22;;;2.88;;
53652;SDS011;39553;52.954;5.932;2022-07-22T03:47:26;5.40;;;2.28;;
53652;SDS011;39553;52.954;5.932;2022-07-22T03:49:52;5.85;;;2.63;;
53652;SDS011;39553;52.954;5.932;2022-07-22T03:52:18;9.60;;;3.67;;
53652;SDS011;39553;52.954;5.932;2022-07-22T03:54:45;7.97;;;3.70;;
53652;SDS011;39553;52.954;5.932;2022-07-22T03:57:11;4.82;;;2.60;;
53652;SDS011;39553;52.954;5.932;2022-07-22T03:59:37;5.43;;;2.78;;
53652;SDS011;39553;52.954;5.932;2022-07-22T04:02:02;8.23;;;2.80;;
53652;SDS011;39553;52.954;5.932;2022-07-22T04:04:29;5.85;;;2.67;;
53652;SDS011;39553;52.954;5.932;2022-07-22T04:06:55;5.88;;;2.67;;
53652;SDS011;39553;52.954;5.932;2022-07-22T04:09:21;6.72;;;2.72;;
53652;SDS011;39553;52.954;5.932;2022-07-22T04:11:47;7.78;;;2.97;;
53652;SDS011;39553;52.954;5.932;2022-07-22T04:14:15;6.43;;;2.50;;
53652;SDS011;39553;52.954;5.932;2022-07-22T04:16:41;6.40;;;2.50;;
53652;SDS011;39553;52.954;5.932;2022-07-22T04:19:09;7.35;;;2.60;;
53652;SDS011;39553;52.954;5.932;2022-07-22T04:21:35;9.93;;;2.30;;
53652;SDS011;39553;52.954;5.932;2022-07-22T04:24:01;3.70;;;1.83;;
53652;SDS011;39553;52.954;5.932;2022-07-22T04:26:26;6.65;;;2.20;;
53652;SDS011;39553;52.954;5.932;2022-07-22T04:28:52;5.65;;;2.17;;
53652;SDS011;39553;52.954;5.932;2022-07-22T04:31:18;4.57;;;1.75;;
53652;SDS011;39553;52.954;5.932;2022-07-22T04:33:44;4.57;;;1.80;;
53652;SDS011;39553;52.954;5.932;2022-07-22T04:36:09;3.72;;;2.13;;
53652;SDS011;39553;52.954;5.932;2022-07-22T04:38:35;5.15;;;1.70;;
53652;SDS011;39553;52.954;5.932;2022-07-22T04:41:01;5.30;;;1.70;;
53652;SDS011;39553;52.954;5.932;2022-07-22T04:43:27;3.08;;;1.35;;
53652;SDS011;39553;52.954;5.932;2022-07-22T04:45:53;6.30;;;1.58;;
53652;SDS011;39553;52.954;5.932;2022-07-22T04:48:20;5.75;;;2.10;;
53652;SDS011;39553;52.954;5.932;2022-07-22T04:50:45;4.40;;;1.80;;
53652;SDS011;39553;52.954;5.932;2022-07-22T04:53:11;6.95;;;1.75;;
53652;SDS011;39553;52.954;5.932;2022-07-22T04:55:37;5.85;;;2.25;;
53652;SDS011;39553;52.954;5.932;2022-07-22T04:58:02;6.07;;;1.85;;
53652;SDS011;39553;52.954;5.932;2022-07-22T05:00:28;3.75;;;2.00;;
53652;SDS011;39553;52.954;5.932;2022-07-22T05:02:54;5.60;;;2.53;;
53652;SDS011;39553;52.954;5.932;2022-07-22T05:05:20;6.97;;;2.55;;
53652;SDS011;39553;52.954;5.932;2022-07-22T05:07:46;6.40;;;2.25;;
53652;SDS011;39553;52.954;5.932;2022-07-22T05:10:12;5.90;;;2.67;;
53652;SDS011;39553;52.954;5.932;2022-07-22T05:12:38;7.13;;;2.38;;
53652;SDS011;39553;52.954;5.932;2022-07-22T05:15:03;5.53;;;2.10;;
53652;SDS011;39553;52.954;5.932;2022-07-22T05:17:30;9.13;;;2.70;;
53652;SDS011;39553;52.954;5.932;2022-07-22T05:19:55;6.97;;;2.28;;
53652;SDS011;39553;52.954;5.932;2022-07-22T05:22:21;4.28;;;1.80;;
53652;SDS011;39553;52.954;5.932;2022-07-22T05:24:47;7.03;;;2.30;;
53652;SDS011;39553;52.954;5.932;2022-07-22T05:27:13;12.07;;;2.60;;
53652;SDS011;39553;52.954;5.932;2022-07-22T05:29:38;3.97;;;2.22;;
53652;SDS011;39553;52.954;5.932;2022-07-22T05:32:04;10.38;;;2.95;;
53652;SDS011;39553;52.954;5.932;2022-07-22T05:34:30;6.70;;;1.60;;
53652;SDS011;39553;52.954;5.932;2022-07-22T05:36:56;10.52;;;2.17;;
53652;SDS011;39553;52.954;5.932;2022-07-22T05:39:21;7.15;;;2.20;;
53652;SDS011;39553;52.954;5.932;2022-07-22T05:41:47;8.15;;;1.92;;
53652;SDS011;39553;52.954;5.932;2022-07-22T05:44:13;5.82;;;1.88;;
53652;SDS011;39553;52.954;5.932;2022-07-22T05:46:39;11.05;;;2.20;;
53652;SDS011;39553;52.954;5.932;2022-07-22T05:49:06;7.85;;;2.55;;
53652;SDS011;39553;52.954;5.932;2022-07-22T05:51:32;7.57;;;2.33;;
53652;SDS011;39553;52.954;5.932;2022-07-22T05:53:59;6.43;;;1.90;;
53652;SDS011;39553;52.954;5.932;2022-07-22T05:56:27;5.45;;;2.13;;
53652;SDS011;39553;52.954;5.932;2022-07-22T05:58:53;8.88;;;3.28;;
53652;SDS011;39553;52.954;5.932;2022-07-22T06:01:21;8.48;;;3.30;;
53652;SDS011;39553;52.954;5.932;2022-07-22T06:03:47;10.48;;;2.90;;
53652;SDS011;39553;52.954;5.932;2022-07-22T06:06:13;9.52;;;2.30;;
53652;SDS011;39553;52.954;5.932;2022-07-22T06:08:38;7.53;;;2.03;;
53652;SDS011;39553;52.954;5.932;2022-07-22T06:11:04;9.20;;;1.85;;
53652;SDS011;39553;52.954;5.932;2022-07-22T06:13:30;5.97;;;1.92;;
53652;SDS011;39553;52.954;5.932;2022-07-22T06:15:57;4.65;;;2.38;;
53652;SDS011;39553;52.954;5.932;2022-07-22T06:18:23;4.38;;;1.38;;
53652;SDS011;39553;52.954;5.932;2022-07-22T06:20:49;12.00;;;2.88;;
53652;SDS011;39553;52.954;5.932;2022-07-22T06:23:15;6.68;;;1.75;;
53652;SDS011;39553;52.954;5.932;2022-07-22T06:25:41;8.80;;;2.05;;
53652;SDS011;39553;52.954;5.932;2022-07-22T06:28:08;5.50;;;1.95;;
53652;SDS011;39553;52.954;5.932;2022-07-22T06:30:35;6.25;;;1.80;;
53652;SDS011;39553;52.954;5.932;2022-07-22T06:33:01;4.15;;;1.30;;
53652;SDS011;39553;52.954;5.932;2022-07-22T06:35:27;4.88;;;1.35;;
53652;SDS011;39553;52.954;5.932;2022-07-22T06:37:53;4.78;;;1.90;;
53652;SDS011;39553;52.954;5.932;2022-07-22T06:40:19;3.45;;;1.88;;
53652;SDS011;39553;52.954;5.932;2022-07-22T06:42:45;10.77;;;2.00;;
53652;SDS011;39553;52.954;5.932;2022-07-22T06:45:11;5.38;;;1.40;;
53652;SDS011;39553;52.954;5.932;2022-07-22T06:47:37;6.38;;;2.15;;
53652;SDS011;39553;52.954;5.932;2022-07-22T06:50:03;5.20;;;1.58;;
53652;SDS011;39553;52.954;5.932;2022-07-22T06:52:30;2.38;;;1.63;;
53652;SDS011;39553;52.954;5.932;2022-07-22T06:54:56;5.68;;;1.50;;
53652;SDS011;39553;52.954;5.932;2022-07-22T06:57:22;3.00;;;1.42;;
53652;SDS011;39553;52.954;5.932;2022-07-22T06:59:47;4.35;;;1.60;;
53652;SDS011;39553;52.954;5.932;2022-07-22T07:02:13;1.98;;;1.10;;
53652;SDS011;39553;52.954;5.932;2022-07-22T07:04:40;7.10;;;2.38;;
53652;SDS011;39553;52.954;5.932;2022-07-22T07:07:06;7.07;;;2.05;;
53652;SDS011;39553;52.954;5.932;2022-07-22T07:09:34;9.32;;;1.92;;
53652;SDS011;39553;52.954;5.932;2022-07-22T07:12:00;2.75;;;1.30;;
53652;SDS011;39553;52.954;5.932;2022-07-22T07:14:26;5.28;;;1.85;;
53652;SDS011;39553;52.954;5.932;2022-07-22T07:16:51;3.20;;;1.58;;
53652;SDS011;39553;52.954;5.932;2022-07-22T07:19:17;3.92;;;1.42;;
53652;SDS011;39553;52.954;5.932;2022-07-22T07:21:45;2.88;;;1.45;;
53652;SDS011;39553;52.954;5.932;2022-07-22T07:24:12;3.63;;;1.70;;
53652;SDS011;39553;52.954;5.932;2022-07-22T07:26:38;3.92;;;1.70;;
53652;SDS011;39553;52.954;5.932;2022-07-22T07:29:04;5.45;;;1.70;;
53652;SDS011;39553;52.954;5.932;2022-07-22T07:31:30;3.47;;;1.35;;
53652;SDS011;39553;52.954;5.932;2022-07-22T07:33:56;3.67;;;1.67;;
53652;SDS011;39553;52.954;5.932;2022-07-22T07:36:23;3.45;;;1.58;;
53652;SDS011;39553;52.954;5.932;2022-07-22T07:38:49;4.32;;;1.60;;
53652;SDS011;39553;52.954;5.932;2022-07-22T07:41:15;4.70;;;1.70;;
53652;SDS011;39553;52.954;5.932;2022-07-22T07:43:42;4.85;;;1.20;;
53652;SDS011;39553;52.954;5.932;2022-07-22T07:46:08;6.65;;;1.40;;
53652;SDS011;39553;52.954;5.932;2022-07-22T07:48:35;4.60;;;1.60;;
53652;SDS011;39553;52.954;5.932;2022-07-22T07:51:00;5.68;;;2.15;;
53652;SDS011;39553;52.954;5.932;2022-07-22T07:53:26;8.23;;;1.60;;
53652;SDS011;39553;52.954;5.932;2022-07-22T07:55:52;8.48;;;1.60;;
53652;SDS011;39553;52.954;5.932;2022-07-22T07:58:18;6.55;;;1.38;;
53652;SDS011;39553;52.954;5.932;2022-07-22T08:00:44;7.13;;;1.63;;
53652;SDS011;39553;52.954;5.932;2022-07-22T08:03:10;2.35;;;1.48;;
53652;SDS011;39553;52.954;5.932;2022-07-22T08:05:36;2.28;;;1.45;;
53652;SDS011;39553;52.954;5.932;2022-07-22T08:08:04;5.85;;;1.40;;
53652;SDS011;39553;52.954;5.932;2022-07-22T08:10:30;4.65;;;1.42;;
53652;SDS011;39553;52.954;5.932;2022-07-22T08:12:56;3.03;;;1.77;;
53652;SDS011;39553;52.954;5.932;2022-07-22T08:15:23;8.13;;;1.80;;
53652;SDS011;39553;52.954;5.932;2022-07-22T08:17:50;2.80;;;1.35;;
53652;SDS011;39553;52.954;5.932;2022-07-22T08:20:17;6.93;;;1.13;;
53652;SDS011;39553;52.954;5.932;2022-07-22T08:22:42;3.42;;;1.23;;
53652;SDS011;39553;52.954;5.932;2022-07-22T08:25:08;2.50;;;1.10;;
53652;SDS011;39553;52.954;5.932;2022-07-22T08:27:34;3.92;;;1.17;;
53652;SDS011;39553;52.954;5.932;2022-07-22T08:30:00;2.58;;;1.20;;
53652;SDS011;39553;52.954;5.932;2022-07-22T08:32:32;6.40;;;1.20;;
53652;SDS011;39553;52.954;5.932;2022-07-22T08:35:00;2.75;;;1.00;;
53652;SDS011;39553;52.954;5.932;2022-07-22T08:37:28;3.90;;;1.38;;
53652;SDS011;39553;52.954;5.932;2022-07-22T08:39:54;2.20;;;1.20;;
53652;SDS011;39553;52.954;5.932;2022-07-22T08:42:23;5.03;;;1.17;;
53652;SDS011;39553;52.954;5.932;2022-07-22T08:44:49;2.97;;;1.58;;
53652;SDS011;39553;52.954;5.932;2022-07-22T08:47:15;7.30;;;1.42;;
53652;SDS011;39553;52.954;5.932;2022-07-22T08:49:46;3.50;;;1.15;;
53652;SDS011;39553;52.954;5.932;2022-07-22T08:52:12;3.25;;;1.88;;
53652;SDS011;39553;52.954;5.932;2022-07-22T08:54:37;4.93;;;1.42;;
53652;SDS011;39553;52.954;5.932;2022-07-22T08:57:04;3.42;;;1.17;;
53652;SDS011;39553;52.954;5.932;2022-07-22T08:59:30;5.07;;;1.52;;
53652;SDS011;39553;52.954;5.932;2022-07-22T09:02:07;1.55;;;1.00;;
53652;SDS011;39553;52.954;5.932;2022-07-22T09:07:31;2.08;;;1.00;;
53652;SDS011;39553;52.954;5.932;2022-07-22T09:10:00;5.03;;;1.30;;
53652;SDS011;39553;52.954;5.932;2022-07-22T09:12:26;3.25;;;1.10;;
53652;SDS011;39553;52.954;5.932;2022-07-22T09:14:56;4.38;;;1.50;;
53652;SDS011;39553;52.954;5.932;2022-07-22T09:17:26;7.15;;;1.60;;
53652;SDS011;39553;52.954;5.932;2022-07-22T09:19:59;2.80;;;1.00;;
53652;SDS011;39553;52.954;5.932;2022-07-22T09:25:20;7.25;;;1.58;;
53652;SDS011;39553;52.954;5.932;2022-07-22T09:30:37;1.92;;;0.90;;
53652;SDS011;39553;52.954;5.932;2022-07-22T09:33:05;3.83;;;1.20;;
53652;SDS011;39553;52.954;5.932;2022-07-22T09:35:32;2.60;;;1.00;;
53652;SDS011;39553;52.954;5.932;2022-07-22T09:37:58;2.42;;;0.80;;
53652;SDS011;39553;52.954;5.932;2022-07-22T09:40:39;3.83;;;1.10;;
53652;SDS011;39553;52.954;5.932;2022-07-22T09:43:07;1.20;;;0.80;;
53652;SDS011;39553;52.954;5.932;2022-07-22T09:48:16;2.45;;;1.10;;
53652;SDS011;39553;52.954;5.932;2022-07-22T09:50:43;2.78;;;1.05;;
53652;SDS011;39553;52.954;5.932;2022-07-22T09:53:10;3.17;;;0.75;;
53652;SDS011;39553;52.954;5.932;2022-07-22T09:55:35;1.13;;;0.70;;
53652;SDS011;39553;52.954;5.932;2022-07-22T09:58:04;5.75;;;0.93;;
53652;SDS011;39553;52.954;5.932;2022-07-22T10:00:33;1.88;;;0.77;;
53652;SDS011;39553;52.954;5.932;2022-07-22T10:03:01;2.03;;;1.13;;
53652;SDS011;39553;52.954;5.932;2022-07-22T10:05:29;0.93;;;0.70;;
53652;SDS011;39553;52.954;5.932;2022-07-22T10:07:57;3.13;;;0.90;;
53652;SDS011;39553;52.954;5.932;2022-07-22T10:10:25;5.93;;;2.15;;
53652;SDS011;39553;52.954;5.932;2022-07-22T10:12:54;3.67;;;1.23;;
53652;SDS011;39553;52.954;5.932;2022-07-22T10:15:21;3.13;;;1.10;;
53652;SDS011;39553;52.954;5.932;2022-07-22T10:17:50;1.38;;;0.80;;
53652;SDS011;39553;52.954;5.932;2022-07-22T10:20:18;2.33;;;0.98;;
53652;SDS011;39553;52.954;5.932;2022-07-22T10:22:53;2.72;;;0.82;;
53652;SDS011;39553;52.954;5.932;2022-07-22T10:25:31;1.85;;;1.05;;
53652;SDS011;39553;52.954;5.932;2022-07-22T10:28:19;3.13;;;1.00;;
53652;SDS011;39553;52.954;5.932;2022-07-22T10:31:21;1.42;;;0.80;;
53652;SDS011;39553;52.954;5.932;2022-07-22T10:33:50;2.92;;;0.85;;
53652;SDS011;39553;52.954;5.932;2022-07-22T10:39:05;1.70;;;0.80;;
53652;SDS011;39553;52.954;5.932;2022-07-22T10:44:08;1.58;;;0.80;;
53652;SDS011;39553;52.954;5.932;2022-07-22T10:46:53;2.25;;;0.88;;
53652;SDS011;39553;52.954;5.932;2022-07-22T10:49:24;2.97;;;0.85;;
53652;SDS011;39553;52.954;5.932;2022-07-22T10:57:42;1.63;;;1.00;;
53652;SDS011;39553;52.954;5.932;2022-07-22T11:00:08;3.17;;;1.00;;
53652;SDS011;39553;52.954;5.932;2022-07-22T11:02:35;1.30;;;0.90;;
53652;SDS011;39553;52.954;5.932;2022-07-22T11:05:03;1.70;;;0.70;;
53652;SDS011;39553;52.954;5.932;2022-07-22T11:07:29;7.65;;;1.10;;
53652;SDS011;39553;52.954;5.932;2022-07-22T11:10:12;3.35;;;0.80;;
53652;SDS011;39553;52.954;5.932;2022-07-22T11:12:41;1.80;;;0.88;;
53652;SDS011;39553;52.954;5.932;2022-07-22T11:15:07;0.90;;;0.70;;
53652;SDS011;39553;52.954;5.932;2022-07-22T11:17:34;1.65;;;0.80;;
53652;SDS011;39553;52.954;5.932;2022-07-22T11:20:01;5.03;;;0.68;;
53652;SDS011;39553;52.954;5.932;2022-07-22T11:22:29;1.05;;;0.68;;
53652;SDS011;39553;52.954;5.932;2022-07-22T11:24:57;0.77;;;0.52;;
53652;SDS011;39553;52.954;5.932;2022-07-22T11:27:26;3.42;;;0.90;;
53652;SDS011;39553;52.954;5.932;2022-07-22T11:29:52;0.85;;;0.50;;
53652;SDS011;39553;52.954;5.932;2022-07-22T11:32:22;2.30;;;0.60;;
53652;SDS011;39553;52.954;5.932;2022-07-22T11:34:49;4.15;;;1.17;;
53652;SDS011;39553;52.954;5.932;2022-07-22T11:37:16;2.70;;;1.00;;
53652;SDS011;39553;52.954;5.932;2022-07-22T11:39:50;5.78;;;0.77;;
53652;SDS011;39553;52.954;5.932;2022-07-22T11:42:17;5.72;;;0.90;;
53652;SDS011;39553;52.954;5.932;2022-07-22T11:44:43;2.78;;;0.88;;
53652;SDS011;39553;52.954;5.932;2022-07-22T11:47:09;1.55;;;0.73;;
53652;SDS011;39553;52.954;5.932;2022-07-22T11:49:36;1.85;;;0.70;;
53652;SDS011;39553;52.954;5.932;2022-07-22T11:52:04;2.72;;;0.90;;
53652;SDS011;39553;52.954;5.932;2022-07-22T11:54:37;1.73;;;0.70;;
53652;SDS011;39553;52.954;5.932;2022-07-22T11:57:04;2.78;;;1.05;;
53652;SDS011;39553;52.954;5.932;2022-07-22T11:59:30;2.95;;;0.90;;
53652;SDS011;39553;52.954;5.932;2022-07-22T12:01:58;1.48;;;0.60;;
53652;SDS011;39553;52.954;5.932;2022-07-22T12:04:25;1.50;;;0.88;;
53652;SDS011;39553;52.954;5.932;2022-07-22T12:06:53;0.95;;;0.70;;
53652;SDS011;39553;52.954;5.932;2022-07-22T12:09:20;1.25;;;0.70;;
53652;SDS011;39553;52.954;5.932;2022-07-22T12:11:52;2.28;;;1.00;;
53652;SDS011;39553;52.954;5.932;2022-07-22T12:14:21;2.40;;;1.05;;
53652;SDS011;39553;52.954;5.932;2022-07-22T12:16:54;2.75;;;1.20;;
53652;SDS011;39553;52.954;5.932;2022-07-22T12:19:25;1.20;;;0.82;;
53652;SDS011;39553;52.954;5.932;2022-07-22T12:21:56;2.47;;;1.00;;
53652;SDS011;39553;52.954;5.932;2022-07-22T12:24:37;3.13;;;1.20;;
53652;SDS011;39553;52.954;5.932;2022-07-22T12:32:07;2.47;;;0.80;;
53652;SDS011;39553;52.954;5.932;2022-07-22T12:37:12;1.55;;;0.77;;
53652;SDS011;39553;52.954;5.932;2022-07-22T12:43:01;1.17;;;0.90;;
53652;SDS011;39553;52.954;5.932;2022-07-22T12:45:29;1.55;;;0.90;;
53652;SDS011;39553;52.954;5.932;2022-07-22T12:48:00;1.45;;;0.90;;
53652;SDS011;39553;52.954;5.932;2022-07-22T12:50:35;1.75;;;0.80;;
53652;SDS011;39553;52.954;5.932;2022-07-22T12:53:02;1.58;;;0.95;;
53652;SDS011;39553;52.954;5.932;2022-07-22T12:55:35;2.47;;;1.17;;
53652;SDS011;39553;52.954;5.932;2022-07-22T12:58:06;2.65;;;1.60;;
53652;SDS011;39553;52.954;5.932;2022-07-22T13:00:33;2.38;;;1.00;;
53652;SDS011;39553;52.954;5.932;2022-07-22T13:03:01;2.28;;;0.93;;
53652;SDS011;39553;52.954;5.932;2022-07-22T13:05:27;1.50;;;0.80;;
53652;SDS011;39553;52.954;5.932;2022-07-22T13:07:53;4.72;;;1.00;;
53652;SDS011;39553;52.954;5.932;2022-07-22T13:10:19;2.20;;;0.80;;
53652;SDS011;39553;52.954;5.932;2022-07-22T13:12:47;1.90;;;0.88;;
53652;SDS011;39553;52.954;5.932;2022-07-22T13:15:13;2.45;;;1.25;;
53652;SDS011;39553;52.954;5.932;2022-07-22T13:17:39;2.00;;;0.90;;
53652;SDS011;39553;52.954;5.932;2022-07-22T13:20:07;2.45;;;0.80;;
53652;SDS011;39553;52.954;5.932;2022-07-22T13:22:34;2.28;;;1.02;;
53652;SDS011;39553;52.954;5.932;2022-07-22T13:25:01;2.03;;;0.80;;
53652;SDS011;39553;52.954;5.932;2022-07-22T13:27:29;3.20;;;0.93;;
53652;SDS011;39553;52.954;5.932;2022-07-22T13:29:55;3.67;;;1.13;;
53652;SDS011;39553;52.954;5.932;2022-07-22T13:32:21;2.13;;;1.00;;
53652;SDS011;39553;52.954;5.932;2022-07-22T13:34:46;1.48;;;0.90;;
53652;SDS011;39553;52.954;5.932;2022-07-22T13:37:13;2.42;;;0.93;;
53652;SDS011;39553;52.954;5.932;2022-07-22T13:39:39;2.50;;;0.90;;
53652;SDS011;39553;52.954;5.932;2022-07-22T13:42:11;2.53;;;1.13;;
53652;SDS011;39553;52.954;5.932;2022-07-22T13:44:38;3.85;;;1.30;;
53652;SDS011;39553;52.954;5.932;2022-07-22T13:47:03;3.17;;;0.93;;
53652;SDS011;39553;52.954;5.932;2022-07-22T13:49:29;5.28;;;1.00;;
53652;SDS011;39553;52.954;5.932;2022-07-22T13:51:55;5.00;;;1.33;;
53652;SDS011;39553;52.954;5.932;2022-07-22T13:54:24;1.75;;;1.13;;
53652;SDS011;39553;52.954;5.932;2022-07-22T13:56:50;3.95;;;1.05;;
53652;SDS011;39553;52.954;5.932;2022-07-22T13:59:16;2.90;;;1.05;;
53652;SDS011;39553;52.954;5.932;2022-07-22T14:01:42;1.38;;;0.93;;
53652;SDS011;39553;52.954;5.932;2022-07-22T14:04:08;2.05;;;1.20;;
53652;SDS011;39553;52.954;5.932;2022-07-22T14:06:37;1.50;;;0.95;;
53652;SDS011;39553;52.954;5.932;2022-07-22T14:09:04;2.35;;;1.10;;
53652;SDS011;39553;52.954;5.932;2022-07-22T14:11:30;4.00;;;1.20;;
53652;SDS011;39553;52.954;5.932;2022-07-22T14:13:56;1.77;;;1.08;;
53652;SDS011;39553;52.954;5.932;2022-07-22T14:16:22;4.18;;;1.80;;
53652;SDS011;39553;52.954;5.932;2022-07-22T14:21:42;5.97;;;1.83;;
53652;SDS011;39553;52.954;5.932;2022-07-22T14:24:11;2.50;;;1.23;;
53652;SDS011;39553;52.954;5.932;2022-07-22T14:26:37;2.85;;;1.30;;
53652;SDS011;39553;52.954;5.932;2022-07-22T14:29:04;4.57;;;1.50;;
53652;SDS011;39553;52.954;5.932;2022-07-22T14:31:31;1.52;;;1.20;;
53652;SDS011;39553;52.954;5.932;2022-07-22T14:33:57;3.08;;;2.20;;
53652;SDS011;39553;52.954;5.932;2022-07-22T14:36:23;1.67;;;1.02;;
53652;SDS011;39553;52.954;5.932;2022-07-22T14:38:50;1.95;;;1.00;;
53652;SDS011;39553;52.954;5.932;2022-07-22T14:41:18;7.75;;;1.63;;
53652;SDS011;39553;52.954;5.932;2022-07-22T14:43:44;1.65;;;1.15;;
53652;SDS011;39553;52.954;5.932;2022-07-22T14:46:10;4.30;;;1.23;;
53652;SDS011;39553;52.954;5.932;2022-07-22T14:48:37;3.85;;;1.20;;
53652;SDS011;39553;52.954;5.932;2022-07-22T14:51:03;1.80;;;1.20;;
53652;SDS011;39553;52.954;5.932;2022-07-22T14:53:29;2.95;;;1.42;;
53652;SDS011;39553;52.954;5.932;2022-07-22T14:55:55;3.60;;;1.25;;
53652;SDS011;39553;52.954;5.932;2022-07-22T14:58:21;2.97;;;1.00;;
53652;SDS011;39553;52.954;5.932;2022-07-22T15:00:47;2.63;;;1.35;;
53652;SDS011;39553;52.954;5.932;2022-07-22T15:03:13;3.05;;;1.40;;
53652;SDS011;39553;52.954;5.932;2022-07-22T15:05:39;1.50;;;0.90;;
53652;SDS011;39553;52.954;5.932;2022-07-22T15:08:06;6.80;;;1.88;;
53652;SDS011;39553;52.954;5.932;2022-07-22T15:10:32;4.55;;;1.85;;
53652;SDS011;39553;52.954;5.932;2022-07-22T15:12:58;2.88;;;1.42;;
53652;SDS011;39553;52.954;5.932;2022-07-22T15:15:24;4.93;;;1.48;;
53652;SDS011;39553;52.954;5.932;2022-07-22T15:17:50;3.25;;;1.50;;
53652;SDS011;39553;52.954;5.932;2022-07-22T15:20:16;5.75;;;1.70;;
53652;SDS011;39553;52.954;5.932;2022-07-22T15:22:42;4.38;;;1.42;;